Time;durP1;ratioP1;P1;durP2;ratioP2;P2;SDS_P1;SDS_P2;PMS_P1;PMS_P2;Temp;Humidity;BMP_temperature;BMP_pressure;BME280_temperature;BME280_humidity;BME280_pressure;Samples;Min_cycle;Max_cycle;Signal;HPM_P1;HPM_P2
2023/02/06 00:00:41;;;;;;;5.10;2.80;;;;;;;;;;21175199;28;20075;-67
2023/02/06 00:10:43;;;;;;;10.20;3.92;;;;;;;;;;21174922;28;20043;-66
2023/02/06 00:21:04;;;;;;;7.32;3.55;;;;;;;;;;21164302;28;20055;-67
2023/02/06 00:31:26;;;;;;;7.75;3.03;;;;;;;;;;21172363;28;20055;-68
2023/02/06 00:41:49;;;;;;;4.28;1.92;;;;;;;;;;21170472;28;20039;-67
2023/02/06 00:51:54;;;;;;;4.88;2.35;;;;;;;;;;21169869;28;20047;-67
2023/02/06 01:01:57;;;;;;;8.55;2.22;;;;;;;;;;21169112;28;20165;-67
2023/02/06 01:11:59;;;;;;;4.30;2.67;;;;;;;;;;21166266;28;20052;-65
2023/02/06 01:22:01;;;;;;;6.18;2.30;;;;;;;;;;21165678;28;20050;-67
2023/02/06 01:32:03;;;;;;;4.10;1.60;;;;;;;;;;21165460;28;20113;-65
2023/02/06 01:42:05;;;;;;;5.03;2.47;;;;;;;;;;21112467;28;20117;-67
2023/02/06 01:52:13;;;;;;;8.60;2.72;;;;;;;;;;21080473;28;20383;-66
2023/02/06 02:02:15;;;;;;;5.18;2.10;;;;;;;;;;21079082;28;20169;-66
2023/02/06 02:12:18;;;;;;;4.80;1.90;;;;;;;;;;21078282;28;20048;-67
2023/02/06 02:22:48;;;;;;;4.35;2.40;;;;;;;;;;21079375;28;20048;-65
2023/02/06 02:33:00;;;;;;;4.93;2.50;;;;;;;;;;21078952;28;20151;-67
2023/02/06 02:43:22;;;;;;;7.23;2.40;;;;;;;;;;21077776;28;20139;-63
2023/02/06 02:53:27;;;;;;;6.40;2.65;;;;;;;;;;21077935;28;20393;-66
2023/02/06 03:03:31;;;;;;;5.38;2.45;;;;;;;;;;21093679;28;20169;-67
2023/02/06 03:13:38;;;;;;;6.05;2.95;;;;;;;;;;21093216;28;20058;-66
2023/02/06 03:23:44;;;;;;;5.60;2.35;;;;;;;;;;21092394;28;20079;-66
2023/02/06 03:33:54;;;;;;;3.03;1.63;;;;;;;;;;21090405;28;20063;-67
2023/02/06 03:43:58;;;;;;;3.30;1.80;;;;;;;;;;21093994;28;20055;-66
2023/02/06 03:54:03;;;;;;;4.20;2.45;;;;;;;;;;21092012;28;20079;-67
2023/02/06 04:04:07;;;;;;;4.38;2.42;;;;;;;;;;21087672;28;20048;-67
2023/02/06 04:14:11;;;;;;;3.60;2.10;;;;;;;;;;21087106;28;20063;-67
2023/02/06 04:24:16;;;;;;;3.95;2.03;;;;;;;;;;21086159;28;20065;-66
2023/02/06 04:34:21;;;;;;;4.22;2.25;;;;;;;;;;21086348;28;20109;-65
2023/02/06 04:44:25;;;;;;;3.53;1.60;;;;;;;;;;21084715;28;20519;-66
2023/02/06 04:54:28;;;;;;;4.35;1.92;;;;;;;;;;21083463;28;20095;-66
2023/02/06 05:04:31;;;;;;;3.08;1.70;;;;;;;;;;21083813;28;20054;-65
2023/02/06 05:14:35;;;;;;;4.70;2.55;;;;;;;;;;21083305;28;20052;-68
2023/02/06 05:24:37;;;;;;;4.47;2.00;;;;;;;;;;21081344;28;20047;-67
2023/02/06 05:34:42;;;;;;;4.38;1.90;;;;;;;;;;21081710;28;20052;-66
2023/02/06 05:44:44;;;;;;;7.40;2.17;;;;;;;;;;21080362;28;20455;-67
2023/02/06 05:54:47;;;;;;;6.60;2.42;;;;;;;;;;21079734;28;20069;-68
2023/02/06 06:04:49;;;;;;;3.95;2.10;;;;;;;;;;21081440;28;20055;-66
2023/02/06 06:14:52;;;;;;;3.67;1.70;;;;;;;;;;21080488;28;20044;-68
2023/02/06 06:24:55;;;;;;;6.03;2.42;;;;;;;;;;21080135;28;20504;-67
2023/02/06 06:34:57;;;;;;;3.50;2.08;;;;;;;;;;21089911;28;20047;-68
2023/02/06 06:44:59;;;;;;;8.55;2.75;;;;;;;;;;21094351;28;20079;-65
2023/02/06 06:55:01;;;;;;;6.43;2.30;;;;;;;;;;21095864;28;20473;-68
2023/02/06 07:05:04;;;;;;;6.72;2.70;;;;;;;;;;21092638;28;20052;-67
2023/02/06 07:15:07;;;;;;;6.03;3.00;;;;;;;;;;21092729;28;20080;-69
2023/02/06 07:25:10;;;;;;;13.65;3.50;;;;;;;;;;21092325;28;20044;-67
2023/02/06 07:35:16;;;;;;;9.80;3.97;;;;;;;;;;21091021;28;20182;-65
2023/02/06 07:45:18;;;;;;;18.60;6.95;;;;;;;;;;21088275;28;20056;-65
2023/02/06 07:55:20;;;;;;;9.50;4.47;;;;;;;;;;21089796;28;20044;-67
2023/02/06 08:05:23;;;;;;;13.90;5.22;;;;;;;;;;21089784;28;20425;-68
2023/02/06 08:15:25;;;;;;;16.90;4.68;;;;;;;;;;21088119;28;20125;-66
2023/02/06 08:25:27;;;;;;;11.48;3.75;;;;;;;;;;21086484;28;20047;-67
2023/02/06 08:35:30;;;;;;;14.48;5.00;;;;;;;;;;21086778;28;20405;-68
2023/02/06 08:45:33;;;;;;;11.50;4.25;;;;;;;;;;21085241;28;20414;-65
2023/02/06 08:55:35;;;;;;;17.48;5.53;;;;;;;;;;21083785;28;20048;-66
2023/02/06 09:05:38;;;;;;;12.93;4.65;;;;;;;;;;21085892;28;20048;-66
2023/02/06 09:15:41;;;;;;;12.80;4.38;;;;;;;;;;21093646;28;20178;-67
2023/02/06 09:25:45;;;;;;;9.63;3.42;;;;;;;;;;21083103;28;20051;-67
2023/02/06 09:35:47;;;;;;;12.02;4.40;;;;;;;;;;21081886;28;20052;-67
2023/02/06 09:45:52;;;;;;;5.03;1.70;;;;;;;;;;21081262;28;20125;-68
2023/02/06 09:56:01;;;;;;;2.13;0.93;;;;;;;;;;21080048;28;20052;-67
2023/02/06 10:06:04;;;;;;;1.77;0.55;;;;;;;;;;21079961;28;20048;-67
2023/02/06 10:16:16;;;;;;;2.80;0.63;;;;;;;;;;21080677;28;20052;-66
2023/02/06 10:26:21;;;;;;;6.80;1.35;;;;;;;;;;21079867;28;20044;-67
2023/02/06 10:36:26;;;;;;;4.03;0.90;;;;;;;;;;21078973;28;20059;-67
2023/02/06 10:46:28;;;;;;;5.05;0.70;;;;;;;;;;21056084;28;20664;-64
2023/02/06 10:56:36;;;;;;;7.60;0.80;;;;;;;;;;20994358;28;20380;-64
2023/02/06 11:06:40;;;;;;;4.25;0.50;;;;;;;;;;20994046;28;20128;-64
2023/02/06 11:16:43;;;;;;;6.78;0.60;;;;;;;;;;20997183;28;20053;-66
2023/02/06 11:26:50;;;;;;;2.53;0.60;;;;;;;;;;21007946;28;20079;-70
2023/02/06 11:36:54;;;;;;;7.57;0.57;;;;;;;;;;21005939;28;20470;-70
2023/02/06 11:46:56;;;;;;;29.20;1.30;;;;;;;;;;21006406;28;20049;-70
2023/02/06 11:56:59;;;;;;;5.53;0.80;;;;;;;;;;21003705;28;20048;-73
2023/02/06 12:07:06;;;;;;;1.50;0.40;;;;;;;;;;21004129;28;20064;-69
2023/02/06 12:17:20;;;;;;;1.50;0.57;;;;;;;;;;21009982;28;20108;-76
2023/02/06 12:27:37;;;;;;;1.60;1.00;;;;;;;;;;21007839;28;20143;-66
2023/02/06 12:37:43;;;;;;;3.50;0.57;;;;;;;;;;21001361;28;20064;-69
2023/02/06 12:47:51;;;;;;;3.22;1.27;;;;;;;;;;21003332;28;20457;-65
2023/02/06 12:57:54;;;;;;;2.22;0.70;;;;;;;;;;21001664;28;20402;-64
2023/02/06 13:08:02;;;;;;;3.50;0.50;;;;;;;;;;21000059;28;20049;-65
2023/02/06 13:18:24;;;;;;;0.98;0.50;;;;;;;;;;20999673;28;20098;-66
2023/02/06 13:28:26;;;;;;;4.40;0.70;;;;;;;;;;20998633;28;20405;-66
2023/02/06 13:38:37;;;;;;;3.78;0.57;;;;;;;;;;20997908;28;20417;-67
2023/02/06 13:48:57;;;;;;;2.87;1.00;;;;;;;;;;20996917;28;20385;-67
2023/02/06 13:59:05;;;;;;;1.40;0.50;;;;;;;;;;20993907;28;20052;-67
2023/02/06 14:09:10;;;;;;;6.47;0.70;;;;;;;;;;20995365;28;20497;-67
2023/02/06 14:19:11;;;;;;;1.17;0.55;;;;;;;;;;20994706;28;20076;-67
2023/02/06 14:29:16;;;;;;;0.95;0.30;;;;;;;;;;20994756;28;20139;-65
2023/02/06 14:39:33;;;;;;;2.95;0.77;;;;;;;;;;20994246;28;20048;-66
2023/02/06 14:49:36;;;;;;;2.60;0.52;;;;;;;;;;20995126;28;20482;-66
2023/02/06 14:59:48;;;;;;;2.88;0.80;;;;;;;;;;21009974;28;20067;-66
2023/02/06 15:09:56;;;;;;;1.83;0.60;;;;;;;;;;21008174;28;20486;-68
2023/02/06 15:20:13;;;;;;;3.92;0.50;;;;;;;;;;21008478;28;20044;-67
2023/02/06 15:30:18;;;;;;;1.17;0.43;;;;;;;;;;21007327;28;20071;-66
2023/02/06 15:40:26;;;;;;;0.70;0.40;;;;;;;;;;21042762;28;20473;-66
2023/02/06 15:50:28;;;;;;;3.85;0.80;;;;;;;;;;21090686;28;20162;-66
2023/02/06 16:00:32;;;;;;;2.55;0.65;;;;;;;;;;21089218;28;20482;-66
2023/02/06 16:10:37;;;;;;;1.33;0.70;;;;;;;;;;21086469;28;20097;-68
2023/02/06 16:20:42;;;;;;;3.28;0.80;;;;;;;;;;21085991;28;20048;-67
2023/02/06 16:30:52;;;;;;;6.15;1.10;;;;;;;;;;21085421;28;20051;-68
2023/02/06 16:40:54;;;;;;;1.90;0.60;;;;;;;;;;21084206;28;20451;-67
2023/02/06 16:50:58;;;;;;;1.27;0.52;;;;;;;;;;21085023;28;20198;-67
2023/02/06 17:01:01;;;;;;;1.98;0.47;;;;;;;;;;21084570;28;20055;-67
2023/02/06 17:11:03;;;;;;;1.17;0.45;;;;;;;;;;21082962;28;20055;-65
2023/02/06 17:21:06;;;;;;;5.75;1.52;;;;;;;;;;21082073;28;20048;-66
2023/02/06 17:31:08;;;;;;;3.60;1.45;;;;;;;;;;21081032;28;20036;-65
2023/02/06 17:41:11;;;;;;;6.30;1.40;;;;;;;;;;21079745;28;20117;-65
2023/02/06 17:51:14;;;;;;;6.30;2.45;;;;;;;;;;21079454;28;20047;-64
2023/02/06 18:01:18;;;;;;;3.65;1.25;;;;;;;;;;21080258;28;20075;-67
2023/02/06 18:11:21;;;;;;;1.45;0.80;;;;;;;;;;21079718;28;20131;-63
2023/02/06 18:21:24;;;;;;;4.07;1.20;;;;;;;;;;21079251;28;20131;-65
2023/02/06 18:31:27;;;;;;;3.75;1.50;;;;;;;;;;21089598;28;20052;-62
2023/02/06 18:51:50;;;;;;;3.72;1.13;;;;;;;;;;21093311;28;20050;-65
2023/02/06 19:01:52;;;;;;;6.50;1.67;;;;;;;;;;21092075;28;20119;-64
2023/02/06 19:11:54;;;;;;;1.00;0.50;;;;;;;;;;21091834;28;20101;-63
2023/02/06 19:21:57;;;;;;;2.72;0.60;;;;;;;;;;21093187;28;20044;-66
2023/02/06 19:32:00;;;;;;;3.15;1.25;;;;;;;;;;21090117;28;20048;-64
2023/02/06 19:42:02;;;;;;;4.60;1.30;;;;;;;;;;21089265;28;20087;-66
2023/02/06 19:52:04;;;;;;;2.08;0.90;;;;;;;;;;21089874;28;20056;-66
2023/02/06 20:02:06;;;;;;;4.68;1.05;;;;;;;;;;21089040;28;20040;-67
2023/02/06 20:12:11;;;;;;;1.95;1.05;;;;;;;;;;21087062;28;20047;-63
2023/02/06 20:22:13;;;;;;;2.17;1.15;;;;;;;;;;21087400;28;20415;-66
2023/02/06 20:32:18;;;;;;;2.33;0.75;;;;;;;;;;21087042;28;20056;-67
2023/02/06 20:42:23;;;;;;;1.20;0.63;;;;;;;;;;21084282;28;20071;-66
2023/02/06 20:52:24;;;;;;;1.80;0.82;;;;;;;;;;21083080;28;20040;-67
2023/02/06 21:02:28;;;;;;;3.05;0.90;;;;;;;;;;21084316;28;20055;-65
2023/02/06 21:12:30;;;;;;;1.67;1.23;;;;;;;;;;21083102;28;20134;-66
2023/02/06 21:22:32;;;;;;;3.15;1.05;;;;;;;;;;21082445;28;20055;-66
2023/02/06 21:32:34;;;;;;;3.20;1.35;;;;;;;;;;21080451;28;20051;-62
2023/02/06 21:42:36;;;;;;;5.00;2.03;;;;;;;;;;21080792;28;20052;-63
2023/02/06 21:52:38;;;;;;;3.58;1.77;;;;;;;;;;21080930;28;20473;-67
2023/02/06 22:02:40;;;;;;;2.92;1.70;;;;;;;;;;21079541;28;20048;-63
2023/02/06 22:12:42;;;;;;;4.75;1.40;;;;;;;;;;21078390;28;20056;-67
2023/02/06 22:22:45;;;;;;;3.33;1.88;;;;;;;;;;21078048;28;20048;-65
2023/02/06 22:32:47;;;;;;;4.80;1.98;;;;;;;;;;21078975;28;20052;-65
2023/02/06 22:42:48;;;;;;;2.58;1.80;;;;;;;;;;21077980;28;20056;-64
2023/02/06 23:03:11;;;;;;;4.63;1.52;;;;;;;;;;21078447;28;20047;-65
2023/02/06 23:13:12;;;;;;;3.92;1.60;;;;;;;;;;21083090;28;20044;-63
2023/02/06 23:23:14;;;;;;;3.28;1.10;;;;;;;;;;21091667;28;20044;-62
2023/02/06 23:33:16;;;;;;;2.25;1.17;;;;;;;;;;21091825;28;20059;-65
2023/02/06 23:43:18;;;;;;;1.73;0.98;;;;;;;;;;21089790;28;20608;-64
2023/02/06 23:53:19;;;;;;;1.85;0.80;;;;;;;;;;21090182;28;20087;-65
